Terminal Aerodrome Forecast
Issued by NWS Wilmington, OH

Current Version | Previous Version | Text Only | Print | Product List | Glossary Off
Versions: 1 2 3 4 5 6 7 8 9 10 11 12 13 14 15 16 17 18 19 20 21 22 23 24 25 26 27 28 29 30

000
FTUS41 KILN 231300 AAA
TAFILN
TAF AMD
KILN 231339Z 2314/2412 17010KT P6SM OVC050
     FM231800 15012KT P6SM VCSH BKN035
     FM232300 13012G18KT 4SM -SHRA BR OVC012
     FM240300 16014G26KT 3SM -SHRA BR OVC009
     FM240700 18015G25KT P6SM VCSH OVC010=

USA.gov is the U.S. government's official web portal to all federal, state and local government web resources and services.